createdAt,value
2023-05-23T00:03:27.890Z,15.82
2023-05-23T00:07:09.964Z,15.78
2023-05-23T00:10:58.485Z,15.70
2023-05-23T00:14:46.980Z,15.62
2023-05-23T00:18:35.433Z,15.55
2023-05-23T00:22:23.897Z,15.49
2023-05-23T00:26:12.495Z,15.44
2023-05-23T00:30:00.977Z,15.38
2023-05-23T00:33:49.474Z,15.32
2023-05-23T00:37:37.979Z,15.26
2023-05-23T00:41:26.430Z,15.18
2023-05-23T00:45:14.885Z,15.09
2023-05-23T00:49:03.412Z,15.04
2023-05-23T00:52:51.895Z,14.99
2023-05-23T00:56:40.348Z,14.91
2023-05-23T01:00:28.901Z,14.82
2023-05-23T01:04:17.714Z,14.73
2023-05-23T01:08:06.460Z,14.68
2023-05-23T01:11:57.878Z,14.65
2023-05-23T01:16:04.843Z,14.54
2023-05-23T01:19:53.307Z,14.38
2023-05-23T01:24:03.331Z,14.30
2023-05-23T01:28:07.071Z,14.22
2023-05-23T01:31:55.541Z,14.14
2023-05-23T01:35:44.116Z,14.04
2023-05-23T01:39:32.706Z,13.96
2023-05-23T01:43:21.242Z,13.80
2023-05-23T01:47:09.758Z,13.64
2023-05-23T01:50:58.286Z,13.62
2023-05-23T01:54:46.780Z,13.68
2023-05-23T01:58:35.508Z,13.75
2023-05-23T02:02:24.986Z,13.81
2023-05-23T02:06:13.368Z,13.85
2023-05-23T02:10:01.809Z,13.88
2023-05-23T02:13:50.311Z,13.89
2023-05-23T02:17:38.951Z,13.91
2023-05-23T02:21:26.745Z,13.93
2023-05-23T02:25:15.217Z,13.93
2023-05-23T02:28:56.806Z,13.89
2023-05-23T02:32:46.327Z,13.86
2023-05-23T02:36:35.001Z,13.85
2023-05-23T02:40:23.498Z,13.85
2023-05-23T02:44:11.951Z,13.87
2023-05-23T02:48:00.590Z,13.89
2023-05-23T02:51:49.233Z,13.93
2023-05-23T02:55:37.776Z,13.96
2023-05-23T02:59:26.358Z,14.01
2023-05-23T03:03:15.052Z,14.10
2023-05-23T03:07:05.399Z,14.18
2023-05-23T03:10:56.511Z,14.25
2023-05-23T03:14:45.013Z,14.34
2023-05-23T03:18:33.415Z,14.43
2023-05-23T03:22:21.852Z,14.51
2023-05-23T03:26:10.165Z,14.57
2023-05-23T03:29:58.665Z,14.65
2023-05-23T03:33:47.206Z,14.73
2023-05-23T03:37:35.683Z,14.83
2023-05-23T03:41:24.206Z,14.92
2023-05-23T03:45:12.878Z,15.04
2023-05-23T03:48:35.012Z,15.19
2023-05-23T03:52:23.571Z,15.30
2023-05-23T03:56:11.997Z,15.44
2023-05-23T04:00:00.413Z,15.57
2023-05-23T04:03:49.050Z,15.73
2023-05-23T04:07:37.627Z,15.89
2023-05-23T04:11:26.119Z,16.06
2023-05-23T04:15:14.558Z,16.60
2023-05-23T04:18:52.569Z,17.95
2023-05-23T04:22:41.062Z,19.17
2023-05-23T04:26:29.501Z,20.26
2023-05-23T04:30:18.566Z,20.84
2023-05-23T04:33:49.964Z,20.61
2023-05-23T04:37:32.270Z,20.33
2023-05-23T04:41:02.704Z,20.12
2023-05-23T04:44:54.601Z,19.99
2023-05-23T04:48:42.857Z,19.83
2023-05-23T04:52:14.213Z,19.65
2023-05-23T04:55:53.074Z,19.48
2023-05-23T04:59:31.070Z,19.39
2023-05-23T05:03:19.672Z,19.42
2023-05-23T05:07:09.310Z,19.50
2023-05-23T05:10:57.069Z,19.52
2023-05-23T05:14:45.575Z,19.48
2023-05-23T05:18:33.754Z,19.42
2023-05-23T05:22:22.229Z,19.36
2023-05-23T05:26:10.776Z,19.39
2023-05-23T05:30:00.732Z,19.56
2023-05-23T05:33:49.429Z,19.78
2023-05-23T05:37:28.268Z,20.08
2023-05-23T05:41:16.825Z,20.35
2023-05-23T05:45:04.519Z,20.55
2023-05-23T05:48:47.193Z,20.81
2023-05-23T05:52:36.490Z,21.11
2023-05-23T05:56:25.020Z,21.41
2023-05-23T06:00:13.593Z,21.70
2023-05-23T06:04:02.251Z,21.94
2023-05-23T06:07:40.843Z,22.15
2023-05-23T06:11:29.353Z,22.36
2023-05-23T06:15:18.332Z,22.61
2023-05-23T06:19:06.987Z,22.81
2023-05-23T06:22:56.132Z,22.97
2023-05-23T06:26:39.943Z,23.14
2023-05-23T06:30:28.462Z,23.31
2023-05-23T06:34:00.422Z,23.49
2023-05-23T06:37:30.784Z,23.67
2023-05-23T06:41:15.989Z,23.85
2023-05-23T06:45:05.470Z,24.01
2023-05-23T06:49:02.782Z,24.17
2023-05-23T06:52:54.723Z,24.34
2023-05-23T06:56:43.281Z,24.49
2023-05-23T07:00:22.068Z,24.55
2023-05-23T07:04:10.577Z,24.56
2023-05-23T07:07:57.855Z,24.57
2023-05-23T07:11:46.447Z,24.55
2023-05-23T07:15:35.326Z,24.52
2023-05-23T07:19:19.860Z,24.55
2023-05-23T07:23:07.212Z,24.59
2023-05-23T07:26:56.261Z,24.63
2023-05-23T07:30:44.902Z,24.67
2023-05-23T07:34:33.378Z,24.65
2023-05-23T07:38:20.645Z,24.60
2023-05-23T07:42:17.632Z,24.55
2023-05-23T07:46:06.267Z,24.49
2023-05-23T07:49:54.801Z,24.50
2023-05-23T07:53:43.314Z,24.62
2023-05-23T07:57:30.905Z,24.83
2023-05-23T08:01:19.456Z,25.08
2023-05-23T08:05:08.236Z,25.33
2023-05-23T08:08:58.696Z,25.55
2023-05-23T08:12:50.005Z,25.78
2023-05-23T08:16:38.734Z,25.95
2023-05-23T08:20:30.298Z,26.12
2023-05-23T08:24:19.521Z,26.30
2023-05-23T08:28:08.512Z,26.42
2023-05-23T08:32:00.204Z,26.58
2023-05-23T08:35:38.031Z,26.72
2023-05-23T08:39:20.448Z,26.83
2023-05-23T08:43:11.938Z,26.84
2023-05-23T08:47:00.228Z,26.84
2023-05-23T08:51:00.733Z,26.93
2023-05-23T08:54:49.590Z,26.96
2023-05-23T08:58:38.248Z,27.04
2023-05-23T09:02:26.828Z,27.16
2023-05-23T09:06:15.408Z,27.18
2023-05-23T09:10:00.982Z,27.18
2023-05-23T09:13:49.505Z,27.31
2023-05-23T09:17:41.027Z,27.47
2023-05-23T09:21:29.569Z,27.54
2023-05-23T09:25:21.017Z,27.47
2023-05-23T09:29:09.566Z,27.30
2023-05-23T09:33:04.770Z,27.12
2023-05-23T09:36:55.111Z,26.96
2023-05-23T09:40:42.892Z,26.82
2023-05-23T09:44:11.456Z,26.86
2023-05-23T09:47:58.953Z,27.02
2023-05-23T09:51:47.533Z,27.14
2023-05-23T09:55:12.077Z,27.20
2023-05-23T09:58:53.532Z,27.10
2023-05-23T10:02:42.081Z,26.96
2023-05-23T10:06:41.947Z,26.83
2023-05-23T10:10:25.445Z,26.97
2023-05-23T10:13:56.040Z,27.23
2023-05-23T10:17:56.847Z,27.48
2023-05-23T10:21:40.273Z,27.75
2023-05-23T10:25:29.150Z,27.94
2023-05-23T10:29:17.059Z,27.94
2023-05-23T10:33:05.639Z,27.84
2023-05-23T10:36:54.176Z,27.70
2023-05-23T10:40:49.026Z,27.72
2023-05-23T10:44:42.228Z,27.87
2023-05-23T10:48:30.779Z,28.02
2023-05-23T10:52:12.460Z,28.20
2023-05-23T10:55:53.788Z,28.48
2023-05-23T10:59:42.343Z,28.81
2023-05-23T11:03:34.386Z,29.06
2023-05-23T11:07:29.090Z,29.06
2023-05-23T11:11:15.423Z,28.88
2023-05-23T11:14:54.602Z,28.68
2023-05-23T11:18:50.192Z,28.43
2023-05-23T11:22:17.341Z,28.15
2023-05-23T11:26:13.959Z,27.92
2023-05-23T11:30:01.170Z,27.71
2023-05-23T11:33:42.628Z,27.59
2023-05-23T11:37:37.426Z,27.50
2023-05-23T11:41:30.848Z,27.49
2023-05-23T11:45:19.357Z,27.43
2023-05-23T11:49:07.874Z,27.35
2023-05-23T11:52:55.079Z,27.29
2023-05-23T11:56:43.023Z,27.22
2023-05-23T12:00:16.077Z,27.12
2023-05-23T12:04:04.582Z,26.98
2023-05-23T12:07:49.065Z,26.92
2023-05-23T12:11:37.375Z,27.00
2023-05-23T12:15:19.576Z,27.29
2023-05-23T12:19:08.308Z,27.61
2023-05-23T12:22:56.800Z,28.14
2023-05-23T12:26:45.290Z,28.64
2023-05-23T12:30:33.897Z,29.44
2023-05-23T12:34:12.541Z,30.14
2023-05-23T12:38:01.052Z,30.36
2023-05-23T12:41:46.929Z,30.28
2023-05-23T12:45:25.992Z,30.17
2023-05-23T12:49:04.837Z,30.27
2023-05-23T12:52:39.357Z,30.18
2023-05-23T12:56:28.225Z,29.91
2023-05-23T13:00:08.138Z,29.51
2023-05-23T13:03:56.806Z,29.16
2023-05-23T13:07:31.045Z,28.83
2023-05-23T13:11:03.200Z,28.53
2023-05-23T13:14:44.544Z,28.29
2023-05-23T13:18:33.374Z,28.18
2023-05-23T13:22:21.888Z,28.45
2023-05-23T13:26:10.467Z,28.74
2023-05-23T13:29:44.025Z,29.37
2023-05-23T13:33:32.675Z,30.29
2023-05-23T13:37:21.155Z,31.38
2023-05-23T13:41:10.710Z,32.45
2023-05-23T13:44:59.215Z,33.29
2023-05-23T13:48:47.671Z,33.73
2023-05-23T13:52:36.258Z,33.77
2023-05-23T13:56:25.255Z,33.22
2023-05-23T14:00:13.919Z,32.46
2023-05-23T14:03:44.825Z,32.25
2023-05-23T14:07:33.662Z,32.64
2023-05-23T14:11:15.120Z,33.15
2023-05-23T14:15:04.235Z,33.33
2023-05-23T14:18:53.526Z,33.20
2023-05-23T14:22:42.164Z,32.68
2023-05-23T14:26:30.836Z,31.80
2023-05-23T14:29:58.112Z,31.08
2023-05-23T14:33:29.654Z,30.72
2023-05-23T14:37:18.144Z,30.25
2023-05-23T14:40:59.418Z,29.54
2023-05-23T14:44:46.778Z,28.93
2023-05-23T14:48:26.740Z,28.33
2023-05-23T14:52:14.362Z,27.82
2023-05-23T14:56:01.502Z,27.47
2023-05-23T14:59:38.511Z,27.18
2023-05-23T15:03:19.360Z,26.94
2023-05-23T15:07:08.175Z,26.74
2023-05-23T15:10:56.828Z,26.58
2023-05-23T15:14:07.852Z,26.42
2023-05-23T15:17:34.014Z,26.30
2023-05-23T15:20:58.493Z,26.16
2023-05-23T15:24:47.005Z,26.07
2023-05-23T15:28:35.517Z,25.99
2023-05-23T15:32:24.102Z,25.86
2023-05-23T15:36:12.815Z,25.68
2023-05-23T15:39:50.160Z,25.53
2023-05-23T15:43:31.607Z,25.41
2023-05-23T15:47:20.094Z,25.33
2023-05-23T15:51:08.943Z,25.29
2023-05-23T15:54:47.775Z,25.28
2023-05-23T15:58:36.285Z,25.25
2023-05-23T16:02:24.822Z,25.18
2023-05-23T16:06:13.413Z,25.11
2023-05-23T16:10:02.343Z,25.05
2023-05-23T16:13:50.829Z,24.99
2023-05-23T16:17:32.397Z,24.87
2023-05-23T16:21:19.708Z,24.73
2023-05-23T16:24:28.326Z,24.60
2023-05-23T16:27:18.387Z,24.52
2023-05-23T16:30:57.086Z,24.45
2023-05-23T16:34:50.314Z,24.39
2023-05-23T16:38:32.077Z,24.34
2023-05-23T16:42:21.423Z,24.31
2023-05-23T16:46:06.343Z,24.29
2023-05-23T16:49:55.207Z,24.26
2023-05-23T16:52:46.402Z,24.20
2023-05-23T16:56:17.247Z,24.19
2023-05-23T17:00:05.884Z,24.21
2023-05-23T17:03:36.512Z,24.21
2023-05-23T17:07:16.368Z,24.16
2023-05-23T17:11:04.150Z,24.00
2023-05-23T17:14:53.049Z,23.86
2023-05-23T17:18:41.625Z,23.67
2023-05-23T17:22:30.151Z,23.46
2023-05-23T17:26:20.391Z,23.25
2023-05-23T17:30:09.215Z,23.09
2023-05-23T17:33:50.473Z,22.99
2023-05-23T17:37:38.907Z,22.94
2023-05-23T17:41:27.468Z,22.93
2023-05-23T17:45:15.937Z,22.94
2023-05-23T17:49:04.549Z,22.90
2023-05-23T17:52:53.352Z,22.81
2023-05-23T17:56:44.658Z,22.72
2023-05-23T18:00:33.187Z,22.58
2023-05-23T18:04:22.482Z,22.37
2023-05-23T18:08:02.206Z,22.19
2023-05-23T18:11:51.282Z,21.91
2023-05-23T18:15:39.739Z,21.67
2023-05-23T18:19:28.263Z,21.51
2023-05-23T18:23:16.790Z,21.40
2023-05-23T18:27:05.708Z,21.28
2023-05-23T18:30:54.714Z,21.20
2023-05-23T18:34:11.925Z,21.10
2023-05-23T18:37:43.215Z,20.91
2023-05-23T18:41:25.730Z,20.68
2023-05-23T18:45:14.293Z,20.40
2023-05-23T18:49:02.904Z,20.22
2023-05-23T18:52:51.455Z,20.04
2023-05-23T18:56:39.981Z,19.83
2023-05-23T19:00:28.548Z,19.68
2023-05-23T19:04:17.095Z,19.62
2023-05-23T19:08:05.939Z,19.48
2023-05-23T19:11:54.467Z,19.40
2023-05-23T19:15:42.940Z,19.42
2023-05-23T19:19:31.730Z,19.41
2023-05-23T19:23:21.116Z,19.41
2023-05-23T19:27:09.670Z,19.45
2023-05-23T19:30:58.178Z,19.48
2023-05-23T19:34:46.961Z,19.47
2023-05-23T19:38:35.445Z,19.46
2023-05-23T19:42:23.930Z,19.44
2023-05-23T19:46:11.777Z,19.45
2023-05-23T19:50:00.415Z,19.46
2023-05-23T19:53:42.406Z,19.41
2023-05-23T19:57:30.956Z,19.37
2023-05-23T20:01:19.577Z,19.30
2023-05-23T20:05:09.051Z,19.19
2023-05-23T20:08:58.270Z,19.13
2023-05-23T20:12:46.821Z,19.05
2023-05-23T20:16:35.248Z,19.02
2023-05-23T20:20:24.134Z,18.97
2023-05-23T20:24:12.613Z,18.95
2023-05-23T20:28:01.061Z,18.98
2023-05-23T20:31:49.613Z,19.02
2023-05-23T20:35:39.172Z,19.03
2023-05-23T20:39:27.743Z,19.08
2023-05-23T20:43:16.222Z,19.10
2023-05-23T20:47:04.861Z,19.11
2023-05-23T20:50:52.464Z,19.09
2023-05-23T20:54:40.975Z,19.07
2023-05-23T20:58:29.539Z,19.02
2023-05-23T21:02:11.834Z,18.98
2023-05-23T21:05:59.734Z,18.96
2023-05-23T21:09:48.193Z,18.93
2023-05-23T21:13:39.036Z,18.89
2023-05-23T21:17:28.255Z,18.81
2023-05-23T21:21:16.713Z,18.66
2023-05-23T21:25:05.206Z,18.53
2023-05-23T21:28:53.671Z,18.41
2023-05-23T21:32:42.569Z,18.32
2023-05-23T21:36:21.565Z,18.22
2023-05-23T21:40:10.007Z,18.09
2023-05-23T21:43:58.667Z,17.98
2023-05-23T21:47:47.204Z,17.91
2023-05-23T21:51:35.740Z,17.83
2023-05-23T21:55:24.181Z,17.71
2023-05-23T21:59:12.672Z,17.66
2023-05-23T22:03:01.271Z,17.63
2023-05-23T22:06:45.904Z,17.56
2023-05-23T22:10:19.944Z,17.47
2023-05-23T22:13:55.571Z,17.44
2023-05-23T22:17:30.284Z,17.42
2023-05-23T22:21:18.810Z,17.41
2023-05-23T22:25:07.472Z,17.40
2023-05-23T22:28:51.608Z,17.36
2023-05-23T22:32:44.131Z,17.30
2023-05-23T22:36:32.812Z,17.24
2023-05-23T22:40:14.234Z,17.20
2023-05-23T22:44:02.750Z,17.17
2023-05-23T22:47:42.955Z,17.12
2023-05-23T22:51:16.288Z,17.04
2023-05-23T22:55:06.778Z,17.01
2023-05-23T22:58:56.770Z,17.00
2023-05-23T23:02:38.209Z,17.01
2023-05-23T23:06:16.250Z,16.99
2023-05-23T23:09:55.083Z,16.98
2023-05-23T23:13:43.571Z,16.97
2023-05-23T23:17:20.762Z,16.93
2023-05-23T23:21:09.512Z,16.78
2023-05-23T23:24:58.340Z,16.65
2023-05-23T23:28:47.025Z,16.57
2023-05-23T23:32:36.054Z,16.54
2023-05-23T23:36:24.628Z,16.50
2023-05-23T23:40:13.305Z,16.32
2023-05-23T23:44:01.772Z,16.24
2023-05-23T23:47:50.357Z,16.22
2023-05-23T23:51:38.884Z,16.18
2023-05-23T23:55:27.397Z,15.97
2023-05-23T23:59:15.849Z,15.87
